Time;durP1;ratioP1;P1;durP2;ratioP2;P2;SDS_P1;SDS_P2;PMS_P1;PMS_P2;Temp;Humidity;BMP_temperature;BMP_pressure;BME280_temperature;BME280_humidity;BME280_pressure;Samples;Min_cycle;Max_cycle;Signal;HPM_P1;HPM_P2
2021/08/23 00:00:23;;;;;;;4.60;3.10;;;20.40;99.90;;;;;;4991705;28;20038;-81
2021/08/23 00:02:48;;;;;;;3.58;3.20;;;20.30;99.90;;;;;;5000422;28;20440;-81
2021/08/23 00:05:14;;;;;;;5.70;3.03;;;20.20;99.90;;;;;;4999412;28;20035;-81
2021/08/23 00:07:40;;;;;;;3.95;2.95;;;20.30;99.90;;;;;;4999298;28;20038;-81
2021/08/23 00:10:07;;;;;;;4.80;2.85;;;20.20;99.90;;;;;;4999622;28;20025;-81
2021/08/23 00:12:33;;;;;;;4.30;3.28;;;20.20;99.90;;;;;;4996548;28;20045;-81
2021/08/23 00:14:58;;;;;;;3.47;3.13;;;20.20;99.90;;;;;;4998085;28;20101;-80
2021/08/23 00:17:24;;;;;;;4.30;3.53;;;20.20;99.90;;;;;;4999732;28;20034;-81
2021/08/23 00:19:50;;;;;;;3.50;3.10;;;20.20;99.90;;;;;;4981367;28;20110;-81
2021/08/23 00:22:32;;;;;;;4.22;3.55;;;20.10;99.90;;;;;;4999328;28;20031;-81
2021/08/23 00:25:00;;;;;;;3.95;3.33;;;20.20;99.90;;;;;;4999462;28;20450;-81
2021/08/23 00:27:29;;;;;;;3.92;3.40;;;20.10;99.90;;;;;;4995354;28;20054;-81
2021/08/23 00:29:55;;;;;;;4.32;3.33;;;20.10;99.90;;;;;;4998408;28;20027;-81
2021/08/23 00:32:47;;;;;;;4.95;3.45;;;20.10;99.90;;;;;;4999509;28;20093;-80
2021/08/23 00:35:12;;;;;;;4.63;3.45;;;20.10;99.90;;;;;;4999167;28;20050;-80
2021/08/23 00:37:38;;;;;;;4.68;3.53;;;20.00;99.90;;;;;;4998582;28;20080;-81
2021/08/23 00:40:04;;;;;;;4.25;2.80;;;19.90;99.90;;;;;;4998512;28;20029;-81
2021/08/23 00:42:30;;;;;;;5.72;3.40;;;19.80;99.90;;;;;;4995873;28;20498;-81
2021/08/23 00:44:56;;;;;;;3.75;3.42;;;19.90;99.90;;;;;;4998130;28;20105;-81
2021/08/23 00:47:21;;;;;;;3.60;3.30;;;19.90;99.90;;;;;;4998977;28;20022;-81
2021/08/23 00:49:47;;;;;;;4.35;3.22;;;20.00;99.90;;;;;;4981610;28;20494;-81
2021/08/23 00:52:14;;;;;;;4.32;3.20;;;20.00;99.90;;;;;;4998075;28;20041;-81
2021/08/23 00:54:40;;;;;;;3.92;3.03;;;20.00;99.90;;;;;;4996497;28;20105;-80
2021/08/23 00:57:06;;;;;;;5.20;3.30;;;19.90;99.90;;;;;;4996278;28;20142;-80
2021/08/23 00:59:40;;;;;;;4.05;3.25;;;19.80;99.90;;;;;;4997161;28;20491;-79
2021/08/23 01:02:29;;;;;;;4.28;2.97;;;19.80;99.90;;;;;;4998730;28;20491;-79
2021/08/23 01:05:10;;;;;;;4.47;3.28;;;19.60;99.90;;;;;;4998396;28;20041;-79
2021/08/23 01:07:43;;;;;;;6.05;3.60;;;19.50;99.90;;;;;;4998175;28;20034;-79
2021/08/23 01:10:14;;;;;;;3.83;3.15;;;19.40;99.90;;;;;;4998138;28;20025;-79
2021/08/23 01:12:40;;;;;;;5.55;3.50;;;19.30;99.90;;;;;;4995883;28;20076;-79
2021/08/23 01:15:06;;;;;;;5.72;3.42;;;19.40;99.90;;;;;;4996162;28;20054;-79
2021/08/23 01:17:32;;;;;;;4.65;3.50;;;19.30;99.90;;;;;;4998999;28;20104;-79
2021/08/23 01:20:01;;;;;;;4.80;3.15;;;19.30;99.90;;;;;;4980354;28;20081;-79
2021/08/23 01:22:30;;;;;;;4.68;3.38;;;19.20;99.90;;;;;;4997569;28;20041;-79
2021/08/23 01:24:57;;;;;;;4.10;3.42;;;19.10;99.90;;;;;;4997978;28;20037;-79
2021/08/23 01:27:25;;;;;;;6.15;3.30;;;19.10;99.90;;;;;;4994078;28;20130;-79
2021/08/23 01:30:20;;;;;;;3.97;3.05;;;19.20;99.90;;;;;;4998164;28;20260;-79
2021/08/23 01:32:46;;;;;;;5.20;3.60;;;19.20;99.90;;;;;;4987734;28;20107;-79
2021/08/23 01:35:12;;;;;;;5.13;3.60;;;19.10;99.90;;;;;;4997743;28;20519;-79
2021/08/23 01:37:38;;;;;;;5.18;3.20;;;19.00;99.90;;;;;;4997713;28;20487;-79
2021/08/23 01:40:05;;;;;;;5.38;3.55;;;19.00;99.90;;;;;;4997649;28;20397;-79
2021/08/23 01:42:31;;;;;;;4.18;3.15;;;19.10;99.90;;;;;;4994510;28;20121;-79
2021/08/23 01:44:57;;;;;;;5.85;3.58;;;19.10;99.90;;;;;;4996659;28;20105;-79
2021/08/23 01:47:22;;;;;;;4.63;3.33;;;19.10;99.90;;;;;;4997861;28;20034;-79
2021/08/23 01:49:48;;;;;;;4.45;3.72;;;19.10;99.90;;;;;;4997440;28;20121;-79
2021/08/23 01:52:14;;;;;;;5.70;3.30;;;19.20;99.90;;;;;;4997282;28;20095;-78
2021/08/23 01:54:42;;;;;;;6.32;3.42;;;19.20;99.90;;;;;;4995432;28;20023;-79
2021/08/23 01:57:15;;;;;;;6.15;3.70;;;19.20;99.90;;;;;;4995025;28;20026;-78
2021/08/23 01:59:40;;;;;;;5.68;3.55;;;19.20;99.90;;;;;;4997962;28;20022;-79
2021/08/23 02:02:06;;;;;;;5.43;3.88;;;19.20;99.90;;;;;;4997356;28;20507;-78
2021/08/23 02:04:32;;;;;;;5.35;3.55;;;19.20;99.90;;;;;;4997086;28;20027;-79
2021/08/23 02:06:58;;;;;;;4.78;3.75;;;19.10;99.90;;;;;;4997206;28;20022;-78
2021/08/23 02:09:23;;;;;;;7.13;3.35;;;19.20;99.90;;;;;;4993085;28;20026;-79
2021/08/23 02:11:49;;;;;;;4.82;3.42;;;19.20;99.90;;;;;;4997661;28;20034;-79
2021/08/23 02:14:15;;;;;;;3.50;3.20;;;19.20;99.90;;;;;;4997162;28;20042;-79
2021/08/23 02:16:41;;;;;;;6.35;3.97;;;19.10;99.90;;;;;;4997365;28;20060;-79
2021/08/23 02:19:07;;;;;;;3.97;3.20;;;19.10;99.90;;;;;;4996469;28;20035;-78
2021/08/23 02:21:54;;;;;;;7.43;3.38;;;19.10;99.90;;;;;;4994368;28;20630;-80
2021/08/23 02:24:21;;;;;;;4.68;3.10;;;19.00;99.90;;;;;;4992064;28;20049;-79
2021/08/23 02:26:47;;;;;;;5.25;3.40;;;18.80;99.90;;;;;;4997420;28;20041;-78
2021/08/23 02:29:13;;;;;;;4.95;3.40;;;18.70;99.90;;;;;;4996659;28;20026;-78
2021/08/23 02:31:39;;;;;;;3.50;3.20;;;18.70;99.90;;;;;;4997219;28;20046;-79
2021/08/23 02:34:04;;;;;;;4.80;3.33;;;18.60;99.90;;;;;;4996308;28;20032;-79
2021/08/23 02:36:30;;;;;;;5.25;3.72;;;18.60;99.90;;;;;;4993107;28;20038;-79
2021/08/23 02:38:57;;;;;;;6.53;3.83;;;18.60;99.90;;;;;;4996210;28;20030;-79
2021/08/23 02:41:22;;;;;;;5.30;3.42;;;18.60;99.90;;;;;;4996986;28;20019;-79
2021/08/23 02:43:48;;;;;;;5.82;3.38;;;18.60;99.90;;;;;;4996668;28;20030;-79
2021/08/23 02:46:13;;;;;;;4.97;3.38;;;18.60;99.90;;;;;;4996479;28;20033;-79
2021/08/23 02:48:39;;;;;;;6.90;3.60;;;18.60;99.90;;;;;;4994105;28;20117;-79
2021/08/23 02:51:05;;;;;;;4.50;3.50;;;18.60;99.90;;;;;;4994426;28;20391;-81
2021/08/23 02:53:30;;;;;;;5.47;3.50;;;18.60;99.90;;;;;;4997168;28;20117;-81
2021/08/23 02:55:56;;;;;;;4.68;3.58;;;18.60;99.90;;;;;;4996414;28;20030;-81
2021/08/23 02:58:22;;;;;;;5.45;3.40;;;18.50;99.90;;;;;;4996255;28;20030;-81
2021/08/23 03:00:48;;;;;;;6.45;3.50;;;18.50;99.90;;;;;;4995304;28;20095;-80
2021/08/23 03:03:13;;;;;;;4.28;3.25;;;18.60;99.90;;;;;;4992590;28;20125;-81
2021/08/23 03:05:39;;;;;;;4.70;3.38;;;18.60;99.90;;;;;;4997450;28;20026;-81
2021/08/23 03:08:05;;;;;;;5.53;3.28;;;18.60;99.90;;;;;;4996133;28;20090;-81
2021/08/23 03:10:31;;;;;;;4.30;3.22;;;18.50;99.90;;;;;;4996003;28;20034;-81
2021/08/23 03:12:56;;;;;;;3.75;3.17;;;18.50;99.90;;;;;;4996052;28;20034;-81
2021/08/23 03:15:22;;;;;;;4.10;3.63;;;18.40;99.90;;;;;;4992457;28;20061;-80
2021/08/23 03:17:49;;;;;;;4.80;3.47;;;18.50;99.90;;;;;;4996088;28;20403;-81
2021/08/23 03:20:15;;;;;;;5.68;3.17;;;18.40;99.90;;;;;;4995791;28;20434;-80
2021/08/23 03:22:40;;;;;;;4.40;3.58;;;18.30;99.90;;;;;;4996154;28;20097;-81
2021/08/23 03:25:06;;;;;;;7.53;3.88;;;18.40;99.90;;;;;;4996055;28;20018;-81
2021/08/23 03:27:32;;;;;;;4.28;3.45;;;18.30;99.90;;;;;;4993185;28;20057;-81
2021/08/23 03:29:58;;;;;;;7.05;3.80;;;18.40;99.90;;;;;;4994645;28;20427;-81
2021/08/23 03:32:23;;;;;;;4.85;3.47;;;18.40;99.90;;;;;;4978308;28;20047;-80
2021/08/23 03:34:49;;;;;;;5.75;3.58;;;18.40;99.90;;;;;;4995531;28;20054;-80
2021/08/23 03:37:15;;;;;;;5.10;3.63;;;18.40;99.90;;;;;;5002076;28;20487;-81
2021/08/23 03:39:41;;;;;;;6.65;3.80;;;18.50;99.90;;;;;;5000817;28;20034;-81
2021/08/23 03:42:06;;;;;;;6.63;3.85;;;18.50;99.90;;;;;;4999861;28;20567;-81
2021/08/23 03:44:32;;;;;;;5.18;3.92;;;18.40;99.90;;;;;;4985355;28;20050;-81
2021/08/23 03:46:58;;;;;;;4.32;3.35;;;18.40;99.90;;;;;;5001736;28;20045;-81
2021/08/23 03:49:23;;;;;;;6.00;3.38;;;18.40;99.90;;;;;;5002580;28;20093;-81
2021/08/23 03:51:49;;;;;;;5.15;3.47;;;18.40;99.90;;;;;;5001563;28;20034;-80
2021/08/23 03:54:15;;;;;;;6.40;3.60;;;18.30;99.90;;;;;;4998466;28;20034;-81
2021/08/23 03:56:40;;;;;;;5.28;3.58;;;18.20;99.90;;;;;;5002737;28;20422;-80
2021/08/23 03:59:06;;;;;;;4.88;3.53;;;18.20;99.90;;;;;;5002270;28;20022;-81
2021/08/23 04:01:32;;;;;;;5.47;3.33;;;18.10;99.90;;;;;;5001740;28;20037;-80
2021/08/23 04:03:57;;;;;;;6.50;3.65;;;18.00;99.90;;;;;;5002040;28;20686;-81
2021/08/23 04:06:23;;;;;;;5.00;4.00;;;17.90;99.90;;;;;;4998136;28;20062;-80
2021/08/23 04:08:50;;;;;;;4.90;3.50;;;17.90;99.90;;;;;;4979160;28;20027;-81
2021/08/23 04:11:16;;;;;;;4.63;3.63;;;17.90;99.90;;;;;;5001817;28;20041;-81
2021/08/23 04:13:43;;;;;;;5.82;3.75;;;18.00;99.90;;;;;;5002472;28;20147;-81
2021/08/23 04:16:16;;;;;;;6.40;3.65;;;17.90;99.90;;;;;;5001744;28;20029;-81
2021/08/23 04:18:42;;;;;;;6.20;4.07;;;17.80;99.90;;;;;;5000055;28;20034;-81
2021/08/23 04:21:08;;;;;;;5.35;3.65;;;17.70;99.90;;;;;;4999569;28;20550;-81
2021/08/23 04:23:34;;;;;;;6.38;3.38;;;17.70;99.90;;;;;;5002529;28;20022;-81
2021/08/23 04:26:00;;;;;;;7.00;3.67;;;17.70;99.90;;;;;;5002192;28;20435;-81
2021/08/23 04:28:26;;;;;;;4.90;3.50;;;17.80;99.90;;;;;;5001730;28;20026;-81
2021/08/23 04:30:51;;;;;;;8.13;4.57;;;17.70;99.90;;;;;;5000881;28;20360;-81
2021/08/23 04:33:17;;;;;;;5.53;3.60;;;17.90;99.90;;;;;;4998092;28;20034;-81
2021/08/23 04:35:43;;;;;;;4.97;3.88;;;17.90;99.90;;;;;;5002231;28;20391;-81
2021/08/23 04:38:10;;;;;;;4.85;3.60;;;17.90;99.90;;;;;;5002026;28;20172;-81
2021/08/23 04:40:36;;;;;;;6.78;3.58;;;17.80;99.90;;;;;;5002029;28;20034;-81
2021/08/23 04:43:01;;;;;;;6.53;3.95;;;17.90;99.90;;;;;;5001472;28;20477;-80
2021/08/23 04:45:27;;;;;;;5.45;3.72;;;17.90;99.90;;;;;;4997721;28;20030;-81
2021/08/23 04:47:53;;;;;;;5.55;3.35;;;17.90;99.90;;;;;;4999178;28;20029;-81
2021/08/23 04:50:18;;;;;;;4.55;3.20;;;17.90;99.90;;;;;;4998903;28;20058;-81
2021/08/23 04:52:44;;;;;;;6.80;3.67;;;17.90;99.90;;;;;;4998413;28;20038;-80
2021/08/23 04:55:11;;;;;;;4.93;3.65;;;17.50;99.90;;;;;;4998690;28;20026;-81
2021/08/23 04:57:37;;;;;;;6.25;4.00;;;17.60;99.90;;;;;;4996272;28;20041;-81
2021/08/23 05:00:07;;;;;;;6.65;3.80;;;17.50;99.90;;;;;;4996236;28;20022;-81
2021/08/23 05:02:33;;;;;;;5.90;3.75;;;17.30;99.90;;;;;;4998703;28;20050;-80
2021/08/23 05:04:58;;;;;;;4.50;3.58;;;17.40;99.90;;;;;;4998546;28;20073;-81
2021/08/23 05:07:24;;;;;;;4.60;3.50;;;17.40;99.90;;;;;;4998508;28;20022;-81
2021/08/23 05:09:50;;;;;;;8.45;4.03;;;17.40;99.90;;;;;;4979986;28;20040;-81
2021/08/23 05:12:15;;;;;;;4.45;3.20;;;17.50;99.90;;;;;;4994406;28;20121;-81
2021/08/23 05:14:41;;;;;;;7.07;3.80;;;17.50;99.90;;;;;;4998743;28;20125;-81
2021/08/23 05:17:06;;;;;;;5.03;3.83;;;17.60;99.90;;;;;;4998101;28;20101;-81
2021/08/23 05:19:32;;;;;;;3.85;3.45;;;17.60;99.90;;;;;;4998374;28;20077;-81
2021/08/23 05:21:57;;;;;;;4.88;3.08;;;17.70;99.90;;;;;;4997948;28;20026;-81
2021/08/23 05:24:23;;;;;;;5.88;3.45;;;17.70;99.90;;;;;;4976568;28;20101;-81
2021/08/23 05:26:49;;;;;;;6.35;3.60;;;17.70;99.90;;;;;;4997962;28;20101;-81
2021/08/23 05:29:14;;;;;;;5.43;3.13;;;17.70;99.90;;;;;;4997728;28;20121;-80
2021/08/23 05:31:40;;;;;;;4.25;3.25;;;17.80;99.90;;;;;;4980653;28;20026;-81
2021/08/23 05:34:06;;;;;;;5.15;3.50;;;17.90;99.90;;;;;;4997568;28;20601;-80
2021/08/23 05:36:31;;;;;;;5.25;3.35;;;17.90;99.90;;;;;;4994167;28;20030;-81
2021/08/23 05:38:57;;;;;;;5.55;3.55;;;18.00;99.90;;;;;;5013105;28;20387;-80
2021/08/23 05:41:22;;;;;;;4.95;3.30;;;18.00;99.90;;;;;;4997817;28;20023;-81
2021/08/23 05:43:48;;;;;;;4.82;3.08;;;18.00;99.90;;;;;;4997948;28;20082;-81
2021/08/23 05:46:18;;;;;;;3.83;2.90;;;18.00;99.90;;;;;;4997430;28;20029;-81
2021/08/23 05:48:44;;;;;;;4.57;2.85;;;18.10;99.90;;;;;;4995670;28;20041;-80
2021/08/23 05:51:14;;;;;;;6.18;3.53;;;18.00;99.90;;;;;;4995303;28;20018;-81
2021/08/23 05:53:39;;;;;;;5.82;2.85;;;18.00;99.90;;;;;;4997966;28;20411;-80
2021/08/23 05:56:05;;;;;;;5.70;3.15;;;18.10;99.90;;;;;;4997072;28;20026;-80
2021/08/23 05:58:31;;;;;;;4.25;3.28;;;18.00;99.90;;;;;;4997427;28;20030;-81
2021/08/23 06:00:56;;;;;;;7.55;3.72;;;17.90;99.90;;;;;;4997386;28;20033;-81
2021/08/23 06:03:22;;;;;;;3.85;3.25;;;17.90;99.90;;;;;;4993088;28;20022;-81
2021/08/23 06:05:47;;;;;;;4.43;3.35;;;17.90;99.90;;;;;;4998116;28;20077;-81
2021/08/23 06:08:15;;;;;;;4.18;3.25;;;17.90;99.90;;;;;;4996664;28;20114;-83
2021/08/23 06:10:41;;;;;;;5.03;3.13;;;17.90;99.90;;;;;;4996146;28;20070;-84
2021/08/23 06:13:06;;;;;;;5.80;3.70;;;18.00;99.90;;;;;;4997113;28;20058;-84
2021/08/23 06:15:32;;;;;;;5.28;3.97;;;17.90;99.90;;;;;;4993994;28;20030;-83
2021/08/23 06:17:58;;;;;;;4.03;2.97;;;17.90;99.90;;;;;;4996042;28;20034;-83
2021/08/23 06:20:24;;;;;;;5.20;3.40;;;18.10;99.90;;;;;;4997576;28;20038;-84
2021/08/23 06:22:50;;;;;;;5.60;2.97;;;18.20;99.90;;;;;;4996824;28;20118;-83
2021/08/23 06:25:16;;;;;;;3.70;2.90;;;18.30;99.90;;;;;;4996701;28;20541;-84
2021/08/23 06:27:42;;;;;;;4.72;3.03;;;18.40;99.90;;;;;;4994871;28;20026;-84
2021/08/23 06:30:08;;;;;;;3.58;2.83;;;18.30;99.90;;;;;;4994578;28;20030;-87
2021/08/23 06:32:34;;;;;;;5.72;3.20;;;18.30;99.90;;;;;;4995570;28;20125;-82
2021/08/23 06:35:02;;;;;;;4.20;2.80;;;18.40;99.90;;;;;;4996524;28;20097;-82
2021/08/23 06:37:28;;;;;;;4.60;3.38;;;18.30;99.90;;;;;;4996675;28;20034;-83
2021/08/23 06:39:54;;;;;;;4.22;3.30;;;18.40;99.90;;;;;;4995654;28;20372;-82
2021/08/23 06:42:19;;;;;;;5.80;2.97;;;18.40;99.90;;;;;;4992324;28;20257;-82
2021/08/23 06:44:45;;;;;;;4.40;3.10;;;18.50;99.90;;;;;;4997045;28;20454;-82
2021/08/23 06:47:10;;;;;;;4.65;3.20;;;18.50;99.90;;;;;;4996485;28;20226;-83
2021/08/23 06:49:36;;;;;;;5.53;2.70;;;18.50;99.90;;;;;;4996666;28;20030;-84
2021/08/23 06:52:02;;;;;;;6.60;3.17;;;18.50;99.90;;;;;;4996709;28;20111;-84
2021/08/23 06:54:27;;;;;;;5.57;3.03;;;18.60;99.90;;;;;;4992309;28;20578;-84
2021/08/23 06:56:53;;;;;;;3.83;3.00;;;18.60;99.90;;;;;;4996628;28;20045;-84
2021/08/23 06:59:19;;;;;;;9.40;3.17;;;18.70;99.90;;;;;;4996525;28;20026;-81
2021/08/23 07:01:45;;;;;;;5.68;2.80;;;18.70;99.90;;;;;;4996642;28;20034;-81
2021/08/23 07:04:11;;;;;;;4.03;2.85;;;18.80;99.90;;;;;;4996386;28;20406;-82
2021/08/23 07:06:36;;;;;;;6.47;3.08;;;18.90;99.90;;;;;;4976106;28;20045;-83
2021/08/23 07:09:02;;;;;;;5.85;3.05;;;18.80;99.90;;;;;;4976724;28;20037;-82
2021/08/23 07:11:28;;;;;;;5.95;2.72;;;18.70;99.90;;;;;;4996294;28;20033;-84
2021/08/23 07:13:54;;;;;;;4.57;2.97;;;18.80;99.90;;;;;;4992859;28;20038;-88
2021/08/23 07:16:19;;;;;;;3.47;2.90;;;18.80;99.90;;;;;;4996687;28;20410;-86
2021/08/23 07:18:45;;;;;;;3.35;2.67;;;19.10;99.90;;;;;;4996614;28;20041;-88
2021/08/23 07:21:11;;;;;;;3.30;2.63;;;19.20;99.90;;;;;;4993224;28;20026;-87
2021/08/23 07:23:36;;;;;;;4.72;2.70;;;19.10;99.90;;;;;;4996689;28;20030;-93
2021/08/23 07:26:02;;;;;;;4.07;2.90;;;19.00;99.90;;;;;;4980125;28;20026;-90
2021/08/23 07:28:27;;;;;;;4.97;3.03;;;19.10;99.90;;;;;;4996434;28;20527;-90
2021/08/23 07:30:53;;;;;;;5.13;2.75;;;19.20;99.90;;;;;;4978266;28;20483;-84
2021/08/23 07:33:19;;;;;;;4.22;2.40;;;19.10;99.90;;;;;;4992205;28;20503;-91
2021/08/23 07:35:44;;;;;;;5.47;2.72;;;19.30;99.90;;;;;;4997707;28;20482;-94
2021/08/23 07:38:11;;;;;;;4.63;2.67;;;19.30;99.90;;;;;;4996456;28;20687;-94
2021/08/23 07:40:37;;;;;;;4.80;2.40;;;19.40;99.90;;;;;;4979967;28;20030;-95
2021/08/23 07:43:02;;;;;;;3.88;2.47;;;19.40;99.90;;;;;;4996129;28;20088;-90
2021/08/23 07:45:28;;;;;;;4.30;2.83;;;19.30;99.90;;;;;;4992503;28;20462;-91
2021/08/23 07:47:54;;;;;;;4.97;2.55;;;19.30;99.90;;;;;;4996154;28;20487;-91
2021/08/23 07:50:19;;;;;;;6.75;3.03;;;19.50;99.90;;;;;;4996977;28;20038;-90
2021/08/23 07:52:45;;;;;;;7.30;2.80;;;19.40;99.90;;;;;;4995470;28;20046;-90
2021/08/23 07:55:13;;;;;;;6.00;2.65;;;19.60;99.90;;;;;;4995837;28;20034;-90
2021/08/23 07:57:47;;;;;;;5.18;2.60;;;19.80;99.90;;;;;;4994505;28;20462;-91
2021/08/23 08:00:15;;;;;;;4.53;2.63;;;19.90;99.90;;;;;;4992784;28;20125;-90
2021/08/23 08:02:40;;;;;;;2.97;2.35;;;19.80;99.90;;;;;;5011425;28;20014;-89
2021/08/23 08:05:07;;;;;;;3.25;2.40;;;20.00;99.90;;;;;;4997801;28;20411;-90
2021/08/23 08:07:33;;;;;;;3.40;2.55;;;20.00;99.90;;;;;;4995427;28;20023;-89
2021/08/23 08:09:58;;;;;;;3.47;2.15;;;20.00;99.90;;;;;;4996175;28;20084;-88
2021/08/23 08:12:24;;;;;;;6.63;2.47;;;20.10;99.90;;;;;;4991534;28;20392;-89
2021/08/23 08:14:51;;;;;;;7.40;2.15;;;20.20;99.90;;;;;;4996292;28;20033;-92
2021/08/23 08:17:17;;;;;;;5.07;2.50;;;20.40;99.90;;;;;;4978657;28;20027;-92
2021/08/23 08:19:42;;;;;;;4.65;2.63;;;20.50;99.90;;;;;;4978775;28;20038;-92
2021/08/23 08:22:08;;;;;;;4.47;2.30;;;20.50;99.90;;;;;;4996463;28;20030;-92
2021/08/23 08:24:34;;;;;;;5.95;2.83;;;20.50;99.90;;;;;;4997297;28;20042;-92
2021/08/23 08:27:00;;;;;;;4.25;2.38;;;20.60;99.90;;;;;;4998668;28;20022;-92
2021/08/23 08:29:26;;;;;;;3.83;2.33;;;20.70;99.90;;;;;;5000316;28;20030;-92
2021/08/23 08:31:51;;;;;;;2.58;2.20;;;20.70;99.90;;;;;;5000350;28;20049;-93
2021/08/23 08:34:17;;;;;;;5.20;1.85;;;20.70;99.90;;;;;;5000236;28;20086;-90
2021/08/23 08:36:42;;;;;;;2.83;1.90;;;20.70;99.90;;;;;;4997217;28;20049;-89
2021/08/23 08:39:08;;;;;;;4.50;2.03;;;20.80;99.90;;;;;;4996553;28;20037;-90
2021/08/23 08:41:34;;;;;;;4.25;1.90;;;20.80;99.90;;;;;;4999720;28;20467;-90
2021/08/23 08:44:03;;;;;;;2.85;1.88;;;20.90;99.90;;;;;;4999431;28;20049;-91
2021/08/23 08:46:32;;;;;;;2.83;1.67;;;21.10;99.90;;;;;;4998624;28;20093;-91
2021/08/23 08:48:58;;;;;;;2.05;1.70;;;21.30;99.90;;;;;;4999569;28;20475;-91
2021/08/23 08:51:25;;;;;;;3.13;1.80;;;21.30;99.90;;;;;;4994340;28;20392;-92
2021/08/23 08:53:50;;;;;;;3.58;2.00;;;21.40;99.90;;;;;;4999659;28;20117;-91
2021/08/23 08:56:16;;;;;;;2.80;2.00;;;21.60;99.90;;;;;;4999046;28;20102;-91
2021/08/23 08:58:42;;;;;;;3.17;1.70;;;21.80;99.90;;;;;;4998662;28;20034;-91
2021/08/23 09:01:07;;;;;;;4.60;2.20;;;21.90;99.90;;;;;;4999143;28;20026;-91
2021/08/23 09:03:33;;;;;;;2.67;1.73;;;21.70;99.90;;;;;;4996814;28;20038;-92
2021/08/23 09:06:08;;;;;;;4.43;1.77;;;21.60;99.90;;;;;;4980139;28;20034;-92
2021/08/23 09:08:44;;;;;;;3.85;1.70;;;21.80;99.90;;;;;;4999120;28;20068;-92
2021/08/23 09:11:15;;;;;;;3.55;1.70;;;22.00;99.90;;;;;;4981333;28;20487;-92
2021/08/23 09:13:59;;;;;;;4.55;2.10;;;21.90;99.90;;;;;;4998975;28;20069;-92
2021/08/23 09:16:30;;;;;;;3.03;2.22;;;22.10;99.90;;;;;;4999376;28;20025;-92
2021/08/23 09:18:56;;;;;;;3.20;1.83;;;22.10;99.90;;;;;;4998531;28;20120;-92
2021/08/23 09:21:34;;;;;;;3.38;1.98;;;22.10;99.90;;;;;;4994693;28;20011;-92
2021/08/23 09:24:00;;;;;;;2.47;1.88;;;22.30;99.90;;;;;;5008335;28;20109;-91
2021/08/23 09:26:34;;;;;;;3.13;1.98;;;22.30;99.90;;;;;;4981587;28;20095;-92
2021/08/23 09:29:06;;;;;;;2.58;1.70;;;22.30;99.90;;;;;;4998687;28;20035;-91
2021/08/23 09:31:35;;;;;;;4.13;1.80;;;22.20;99.90;;;;;;4998853;28;20113;-92
2021/08/23 09:34:03;;;;;;;3.25;1.90;;;22.50;99.90;;;;;;4997561;28;20391;-92
2021/08/23 09:36:29;;;;;;;4.70;1.80;;;22.50;99.90;;;;;;4994957;28;20035;-93
2021/08/23 09:39:06;;;;;;;2.35;1.60;;;22.80;99.90;;;;;;4980178;28;20019;-94
2021/08/23 09:41:36;;;;;;;2.25;1.90;;;22.90;99.90;;;;;;4981793;28;20035;-87
2021/08/23 09:44:07;;;;;;;1.88;1.58;;;22.90;99.90;;;;;;4997812;28;20049;-88
2021/08/23 09:46:34;;;;;;;2.78;1.75;;;22.60;99.90;;;;;;4997898;28;20026;-88
2021/08/23 09:49:03;;;;;;;2.47;1.80;;;22.60;99.90;;;;;;4997251;28;20030;-88
2021/08/23 09:51:36;;;;;;;1.80;1.67;;;22.60;99.90;;;;;;4993778;28;20034;-88
2021/08/23 09:54:16;;;;;;;2.95;1.80;;;22.60;99.90;;;;;;4996198;28;20030;-88
2021/08/23 09:56:48;;;;;;;2.33;1.92;;;23.00;99.90;;;;;;4997480;28;20035;-88
2021/08/23 09:59:18;;;;;;;7.10;1.90;;;23.00;99.90;;;;;;4997672;28;20041;-93
2021/08/23 10:01:46;;;;;;;5.03;2.00;;;23.30;99.90;;;;;;5004854;28;20173;-93
2021/08/23 10:04:12;;;;;;;3.15;1.70;;;23.50;99.90;;;;;;4989987;28;20030;-94
2021/08/23 10:06:40;;;;;;;2.05;1.60;;;23.40;99.90;;;;;;4995587;28;20041;-95
2021/08/23 10:09:06;;;;;;;3.33;1.98;;;23.50;99.90;;;;;;4995834;28;20031;-94
2021/08/23 10:11:33;;;;;;;3.55;1.50;;;23.60;99.90;;;;;;4998683;28;20038;-94
2021/08/23 10:14:02;;;;;;;3.70;2.08;;;23.70;99.90;;;;;;4997941;28;20092;-93
2021/08/23 10:16:29;;;;;;;1.88;1.42;;;23.90;99.90;;;;;;4980397;28;20060;-93
2021/08/23 10:18:56;;;;;;;2.70;1.48;;;23.50;99.90;;;;;;4997081;28;20094;-92
2021/08/23 10:21:23;;;;;;;2.72;1.88;;;23.70;99.90;;;;;;4978561;28;20040;-91
2021/08/23 10:23:50;;;;;;;2.80;1.88;;;23.80;99.90;;;;;;4986895;28;20034;-86
2021/08/23 10:26:17;;;;;;;3.65;2.17;;;24.00;99.90;;;;;;4998310;28;20097;-87
2021/08/23 10:28:47;;;;;;;4.22;1.80;;;24.30;99.90;;;;;;5003605;28;20031;-85
2021/08/23 10:31:15;;;;;;;3.00;1.42;;;25.00;99.90;;;;;;4997850;28;20041;-87
2021/08/23 10:33:42;;;;;;;2.33;1.35;;;27.60;99.90;;;;;;4997838;28;20062;-90
2021/08/23 10:36:12;;;;;;;3.67;1.50;;;31.70;99.90;;;;;;4976370;28;20045;-88
2021/08/23 10:38:38;;;;;;;5.13;1.60;;;35.00;99.90;;;;;;4997148;28;20069;-88
2021/08/23 10:41:11;;;;;;;5.05;1.80;;;36.20;99.90;;;;;;4996874;28;20487;-88
2021/08/23 10:43:48;;;;;;;1.70;1.35;;;37.20;99.90;;;;;;4997191;28;20117;-89
2021/08/23 10:46:24;;;;;;;2.05;1.50;;;38.10;99.90;;;;;;4995543;28;20053;-89
2021/08/23 10:48:50;;;;;;;3.33;1.60;;;37.80;99.90;;;;;;4995914;28;20056;-89
2021/08/23 10:51:57;;;;;;;2.88;1.80;;;38.50;99.90;;;;;;4992879;28;20080;-89
2021/08/23 10:54:26;;;;;;;4.20;1.70;;;38.00;99.90;;;;;;4898183;29;20059;-89
2021/08/23 10:57:13;;;;;;;4.03;1.60;;;37.30;99.90;;;;;;4925512;29;20039;-91
2021/08/23 10:59:47;;;;;;;3.20;1.63;;;38.30;99.90;;;;;;4916566;29;20044;-88
2021/08/23 11:02:20;;;;;;;3.25;1.77;;;37.90;99.90;;;;;;4916963;29;20036;-90
2021/08/23 11:05:06;;;;;;;3.08;1.67;;;39.00;99.90;;;;;;4917051;29;20470;-89
2021/08/23 11:07:34;;;;;;;1.90;1.73;;;38.00;99.90;;;;;;4916946;29;20031;-89
2021/08/23 11:10:15;;;;;;;2.97;1.55;;;38.10;99.90;;;;;;4917214;29;20164;-89
2021/08/23 11:12:46;;;;;;;3.50;1.65;;;34.90;99.90;;;;;;4911736;29;20544;-88
2021/08/23 11:15:28;;;;;;;2.50;1.75;;;33.50;99.90;;;;;;4911715;29;20405;-87
2021/08/23 11:18:17;;;;;;;2.08;1.85;;;34.50;99.90;;;;;;4925502;29;20031;-86
2021/08/23 11:20:48;;;;;;;3.63;1.85;;;36.80;99.90;;;;;;4917555;29;20493;-87
2021/08/23 11:23:40;;;;;;;5.22;2.20;;;37.90;99.90;;;;;;4916562;29;20118;-92
2021/08/23 11:26:06;;;;;;;2.50;1.60;;;37.90;99.90;;;;;;4912158;29;20046;-86
2021/08/23 11:28:32;;;;;;;5.18;2.08;;;32.80;99.90;;;;;;4917026;29;20032;-86
2021/08/23 11:30:59;;;;;;;3.80;1.90;;;31.20;99.90;;;;;;4968902;28;20030;-86
2021/08/23 11:33:36;;;;;;;2.88;1.80;;;29.20;99.90;;;;;;4991673;28;20073;-86
2021/08/23 11:36:05;;;;;;;3.58;2.00;;;28.80;99.90;;;;;;4994155;28;20105;-86
2021/08/23 11:38:33;;;;;;;3.55;1.70;;;31.30;99.90;;;;;;4978840;28;20391;-86
2021/08/23 11:41:00;;;;;;;4.72;2.40;;;31.20;99.90;;;;;;4996418;28;20027;-85
2021/08/23 11:43:30;;;;;;;2.15;1.90;;;34.20;99.90;;;;;;4995576;28;20026;-86
2021/08/23 11:45:58;;;;;;;5.80;1.95;;;36.90;99.90;;;;;;4995398;28;20018;-86
2021/08/23 11:48:23;;;;;;;3.95;1.90;;;37.60;99.90;;;;;;4976019;28;20034;-86
2021/08/23 11:50:49;;;;;;;3.17;1.85;;;36.70;99.90;;;;;;5003009;28;20084;-85
2021/08/23 11:53:16;;;;;;;3.97;1.77;;;36.50;99.90;;;;;;4996359;28;20041;-85
2021/08/23 11:55:45;;;;;;;5.55;1.90;;;37.40;99.90;;;;;;4995711;28;20515;-85
2021/08/23 11:58:19;;;;;;;3.28;2.10;;;36.60;99.90;;;;;;4998856;28;20425;-84
2021/08/23 12:00:59;;;;;;;10.80;2.08;;;34.40;99.90;;;;;;4998103;28;20502;-86
2021/08/23 12:03:25;;;;;;;3.38;1.98;;;36.30;99.90;;;;;;4980262;28;20077;-85
2021/08/23 12:05:50;;;;;;;3.45;1.90;;;36.90;99.90;;;;;;4999960;28;20034;-85
2021/08/23 12:08:27;;;;;;;2.97;1.58;;;38.20;99.90;;;;;;4999623;28;20068;-86
2021/08/23 12:10:57;;;;;;;9.55;2.58;;;38.90;99.90;;;;;;4999713;28;20109;-85
2021/08/23 12:13:26;;;;;;;5.07;1.60;;;36.70;99.90;;;;;;4998948;28;20030;-85
2021/08/23 12:16:06;;;;;;;2.88;1.80;;;33.70;99.90;;;;;;4998610;28;20069;-85
2021/08/23 12:18:35;;;;;;;3.80;2.10;;;36.90;99.90;;;;;;4981538;28;20026;-85
2021/08/23 12:21:17;;;;;;;4.25;1.70;;;37.80;99.90;;;;;;4997877;28;20026;-86
2021/08/23 12:23:59;;;;;;;3.67;1.77;;;36.50;99.90;;;;;;4998970;28;20030;-86
2021/08/23 12:26:28;;;;;;;4.30;2.00;;;37.30;99.90;;;;;;5000083;28;20035;-85
2021/08/23 12:29:03;;;;;;;2.63;1.83;;;37.10;99.90;;;;;;4998780;28;20058;-85
2021/08/23 12:31:29;;;;;;;4.03;2.10;;;37.90;99.90;;;;;;4998879;28;20026;-85
2021/08/23 12:33:55;;;;;;;3.55;1.67;;;37.30;99.90;;;;;;4998801;28;20026;-85
2021/08/23 12:36:21;;;;;;;3.28;1.70;;;38.70;99.90;;;;;;4994626;28;20573;-85
2021/08/23 12:38:47;;;;;;;3.97;1.80;;;39.60;99.90;;;;;;4999372;28;20054;-85
2021/08/23 12:41:13;;;;;;;4.00;1.75;;;40.00;99.90;;;;;;4999476;28;20034;-85
2021/08/23 12:43:40;;;;;;;4.13;1.80;;;38.30;99.90;;;;;;4998408;28;20105;-85
2021/08/23 12:46:06;;;;;;;9.13;2.08;;;38.50;99.90;;;;;;4998614;28;20046;-85
2021/08/23 12:48:32;;;;;;;2.30;1.65;;;39.00;99.90;;;;;;4995687;28;20530;-85
2021/08/23 12:51:03;;;;;;;4.80;1.80;;;38.20;99.90;;;;;;4998115;28;20490;-86